Time;durP1;ratioP1;P1;durP2;ratioP2;P2;SDS_P1;SDS_P2;PMS_P1;PMS_P2;Temp;Humidity;BMP_temperature;BMP_pressure;BME280_temperature;BME280_humidity;BME280_pressure;Samples;Min_cycle;Max_cycle;Signal;HPM_P1;HPM_P2
2023/03/03 00:01:26;;;;;;;85.88;31.98;;;;;;;-0.34;100.00;96313.78;5048832;28;20510;-74
2023/03/03 00:03:53;;;;;;;84.32;30.38;;;;;;;-0.39;100.00;96317.19;5049467;28;20591;-74
2023/03/03 00:06:21;;;;;;;89.07;33.67;;;;;;;-0.40;100.00;96320.13;5048793;28;20048;-74
2023/03/03 00:08:47;;;;;;;83.88;31.42;;;;;;;-0.41;100.00;96313.97;5048953;28;20057;-74
2023/03/03 00:11:14;;;;;;;94.32;33.22;;;;;;;-0.44;100.00;96309.09;5048808;28;20048;-74
2023/03/03 00:13:45;;;;;;;88.65;31.38;;;;;;;-0.36;100.00;96321.25;5049324;28;20045;-74
2023/03/03 00:16:21;;;;;;;86.97;32.22;;;;;;;-0.41;100.00;96313.97;5049416;28;20438;-74
2023/03/03 00:18:48;;;;;;;84.88;30.73;;;;;;;-0.40;100.00;96315.59;5049679;28;20045;-75
2023/03/03 00:21:30;;;;;;;82.22;30.85;;;;;;;-0.44;100.00;96313.66;5049899;28;20385;-75
2023/03/03 00:24:18;;;;;;;91.50;31.85;;;;;;;-0.49;100.00;96317.06;5050376;28;20055;-74
2023/03/03 00:26:47;;;;;;;91.50;31.10;;;;;;;-0.42;100.00;96323.03;5049357;28;20641;-74
2023/03/03 00:29:35;;;;;;;81.78;30.42;;;;;;;-0.35;100.00;96318.31;5048349;28;20404;-75
2023/03/03 00:32:24;;;;;;;85.70;30.55;;;;;;;-0.41;100.00;96319.31;5048980;28;20041;-75
2023/03/03 00:34:52;;;;;;;80.93;30.55;;;;;;;-0.34;100.00;96321.81;5049438;28;20132;-72
2023/03/03 00:37:32;;;;;;;75.70;29.33;;;;;;;-0.34;100.00;96319.13;5049172;28;20037;-75
2023/03/03 00:40:09;;;;;;;89.05;33.83;;;;;;;-0.37;100.00;96320.41;5050153;28;20045;-75
2023/03/03 00:42:36;;;;;;;79.32;29.30;;;;;;;-0.31;100.00;96318.63;5049325;28;20052;-74
2023/03/03 00:45:23;;;;;;;82.13;29.80;;;;;;;-0.33;100.00;96321.53;5048281;28;20045;-72
2023/03/03 00:47:50;;;;;;;83.82;30.88;;;;;;;-0.42;100.00;96323.03;5049024;28;20530;-74
2023/03/03 00:50:27;;;;;;;87.40;30.25;;;;;;;-0.34;100.00;96325.28;5050238;28;20040;-72
2023/03/03 00:53:01;;;;;;;85.22;31.45;;;;;;;-0.39;100.00;96327.91;5052440;28;20631;-72
2023/03/03 00:55:28;;;;;;;85.72;31.38;;;;;;;-0.32;100.00;96327.69;5052417;28;20044;-74
2023/03/03 00:57:55;;;;;;;85.28;33.08;;;;;;;-0.41;100.00;96330.03;5052028;28;20051;-72
2023/03/03 01:00:21;;;;;;;90.82;31.83;;;;;;;-0.41;100.00;96331.88;5051841;28;20045;-72
2023/03/03 01:02:48;;;;;;;89.07;30.25;;;;;;;-0.32;100.00;96328.50;5052408;28;20049;-72
2023/03/03 01:05:16;;;;;;;76.13;29.80;;;;;;;-0.21;100.00;96331.31;5052087;28;20041;-74
2023/03/03 01:07:43;;;;;;;84.75;30.88;;;;;;;-0.32;100.00;96339.22;5052592;28;20055;-72
2023/03/03 01:10:11;;;;;;;82.10;30.10;;;;;;;-0.31;100.00;96324.78;5051378;28;20511;-75
2023/03/03 01:12:38;;;;;;;89.22;31.20;;;;;;;-0.37;100.00;96319.59;5052201;28;20072;-74
2023/03/03 01:15:06;;;;;;;77.30;29.70;;;;;;;-0.36;100.00;96322.06;5051644;28;20053;-75
2023/03/03 01:17:33;;;;;;;84.35;31.23;;;;;;;-0.27;100.00;96317.88;5052264;28;20055;-73
2023/03/03 01:19:59;;;;;;;84.85;31.45;;;;;;;-0.36;100.00;96311.34;5051771;28;20131;-74
2023/03/03 01:22:26;;;;;;;82.00;31.92;;;;;;;-0.53;100.00;96305.25;5051668;28;20044;-74
2023/03/03 01:24:53;;;;;;;90.53;31.83;;;;;;;-0.59;100.00;96303.56;5051903;28;20571;-74
2023/03/03 01:27:21;;;;;;;89.38;32.97;;;;;;;-0.62;100.00;96312.09;5051415;28;20041;-74
2023/03/03 01:29:47;;;;;;;90.22;31.25;;;;;;;-0.61;100.00;96297.66;5051373;28;20049;-73
2023/03/03 01:32:13;;;;;;;92.30;32.45;;;;;;;-0.68;100.00;96313.91;5051456;28;20732;-74
2023/03/03 01:34:40;;;;;;;90.55;31.92;;;;;;;-0.64;100.00;96311.53;5052084;28;20068;-74
2023/03/03 01:37:06;;;;;;;90.57;33.35;;;;;;;-0.71;100.00;96301.00;5051208;28;20049;-74
2023/03/03 01:39:33;;;;;;;100.78;34.85;;;;;;;-0.73;100.00;96307.66;5051966;28;20057;-74
2023/03/03 01:41:59;;;;;;;97.18;33.20;;;;;;;-0.75;100.00;96312.44;5051214;28;20152;-74
2023/03/03 01:44:27;;;;;;;98.60;33.42;;;;;;;-0.75;100.00;96312.44;5050784;28;20638;-73
2023/03/03 01:46:58;;;;;;;93.88;34.45;;;;;;;-0.73;100.00;96321.03;5051621;28;20041;-74
2023/03/03 01:49:29;;;;;;;90.25;33.40;;;;;;;-0.70;100.00;96312.53;5051151;28;20443;-74
2023/03/03 01:52:00;;;;;;;88.68;32.92;;;;;;;-0.70;100.00;96315.19;5051591;28;20045;-74
2023/03/03 01:54:29;;;;;;;82.18;31.25;;;;;;;-0.62;100.00;96318.25;5051613;28;20045;-74
2023/03/03 01:57:00;;;;;;;84.70;30.98;;;;;;;-0.67;100.00;96320.06;5051165;28;20519;-74
2023/03/03 01:59:32;;;;;;;83.88;31.88;;;;;;;-0.73;100.00;96326.38;5050549;28;20041;-74
2023/03/03 02:01:58;;;;;;;90.88;32.78;;;;;;;-0.71;100.00;96318.94;5050908;28;20049;-74
2023/03/03 02:04:26;;;;;;;84.85;32.00;;;;;;;-0.60;100.00;96326.03;5051507;28;20041;-74
2023/03/03 02:07:00;;;;;;;94.40;32.60;;;;;;;-0.64;100.00;96322.22;5051171;28;20045;-74
2023/03/03 02:09:34;;;;;;;81.10;30.80;;;;;;;-0.55;100.00;96318.06;5050996;28;20041;-74
2023/03/03 02:12:05;;;;;;;90.07;31.95;;;;;;;-0.62;100.00;96320.13;5051387;28;20045;-74
2023/03/03 02:14:33;;;;;;;78.53;32.20;;;;;;;-0.74;100.00;96320.22;5051295;28;20044;-74
2023/03/03 02:16:59;;;;;;;91.40;33.55;;;;;;;-0.75;100.00;96315.13;5050900;28;20057;-74
2023/03/03 02:19:35;;;;;;;82.45;31.13;;;;;;;-0.65;100.00;96323.28;5050615;28;20049;-74
2023/03/03 02:22:02;;;;;;;87.85;31.55;;;;;;;-0.71;100.00;96321.59;5050630;28;20049;-74
2023/03/03 02:24:34;;;;;;;87.90;32.55;;;;;;;-0.77;100.00;96314.56;5051369;28;20095;-74
2023/03/03 02:27:02;;;;;;;58.50;23.10;;;;;;;-0.61;100.00;96308.38;5051111;28;20049;-74
2023/03/03 02:29:29;;;;;;;83.22;32.40;;;;;;;-0.63;100.00;96305.13;5050692;28;20519;-74
2023/03/03 02:31:55;;;;;;;88.80;32.22;;;;;;;-0.71;100.00;96313.56;5051229;28;20041;-74
2023/03/03 02:34:22;;;;;;;79.38;30.60;;;;;;;-0.69;100.00;96301.56;5050954;28;20056;-74
2023/03/03 02:36:48;;;;;;;86.30;30.92;;;;;;;-0.60;100.00;96299.28;5051780;28;20163;-74
2023/03/03 02:39:18;;;;;;;90.35;32.53;;;;;;;-0.58;100.00;96300.63;5050536;28;20047;-74
2023/03/03 02:41:50;;;;;;;83.57;30.20;;;;;;;-0.52;100.00;96296.19;5050916;28;20522;-74
2023/03/03 02:44:20;;;;;;;84.22;31.02;;;;;;;-0.57;100.00;96285.41;5050341;28;20087;-74
2023/03/03 02:46:48;;;;;;;82.18;31.45;;;;;;;-0.52;100.00;96306.88;5050665;28;20416;-74
2023/03/03 02:49:18;;;;;;;83.68;31.80;;;;;;;-0.53;100.00;96306.03;5049856;28;20052;-73
2023/03/03 02:51:45;;;;;;;85.20;31.15;;;;;;;-0.47;100.00;96309.63;5051145;28;20045;-74
2023/03/03 02:54:13;;;;;;;86.22;31.00;;;;;;;-0.35;100.00;96306.81;5050632;28;20496;-74
2023/03/03 02:56:40;;;;;;;78.25;30.55;;;;;;;-0.20;100.00;96308.84;5050576;28;20045;-74
2023/03/03 02:59:06;;;;;;;81.38;30.38;;;;;;;-0.17;100.00;96311.03;5049991;28;20056;-74
2023/03/03 03:01:36;;;;;;;88.47;31.00;;;;;;;-0.27;100.00;96315.19;5050639;28;20049;-74
2023/03/03 03:04:05;;;;;;;84.65;32.17;;;;;;;-0.11;100.00;96308.13;5050108;28;20135;-74
2023/03/03 03:06:32;;;;;;;88.35;31.33;;;;;;;0.05;100.00;96301.06;5050713;28;20048;-75
2023/03/03 03:08:58;;;;;;;77.30;30.73;;;;;;;-0.06;99.94;96302.03;5050167;28;20052;-72
2023/03/03 03:11:25;;;;;;;81.00;30.38;;;;;;;-0.03;99.64;96312.25;5049874;28;20055;-72
2023/03/03 03:13:52;;;;;;;85.63;31.45;;;;;;;-0.14;100.00;96318.56;5050276;28;20616;-72
2023/03/03 03:16:18;;;;;;;87.18;32.05;;;;;;;-0.06;100.00;96312.75;5041833;28;20041;-72
2023/03/03 03:18:46;;;;;;;79.53;31.33;;;;;;;0.00;100.00;96314.44;5050461;28;20053;-72
2023/03/03 03:21:13;;;;;;;84.95;30.83;;;;;;;0.02;99.96;96303.47;5049884;28;20291;-74
2023/03/03 03:23:40;;;;;;;83.63;30.83;;;;;;;0.07;99.78;96304.31;5050520;28;20041;-72
2023/03/03 03:26:07;;;;;;;79.10;31.50;;;;;;;0.13;99.50;96297.97;5049535;28;20110;-73
2023/03/03 03:28:34;;;;;;;83.03;30.35;;;;;;;-0.01;99.75;96299.41;5049929;28;20041;-72
2023/03/03 03:31:01;;;;;;;86.13;32.67;;;;;;;0.01;100.00;96302.66;5049717;28;20048;-73
2023/03/03 03:33:28;;;;;;;86.18;31.60;;;;;;;0.07;99.98;96303.53;5048877;28;20045;-72
2023/03/03 03:35:57;;;;;;;84.60;30.25;;;;;;;0.25;99.25;96305.81;5049424;28;20499;-72
2023/03/03 03:38:24;;;;;;;81.40;30.27;;;;;;;0.31;98.73;96304.00;5049606;28;20044;-72
2023/03/03 03:40:51;;;;;;;80.95;31.95;;;;;;;0.01;99.52;96300.00;5050057;28;20496;-72
2023/03/03 03:43:17;;;;;;;85.70;31.92;;;;;;;0.15;99.85;96295.81;5049183;28;20049;-73
2023/03/03 03:45:44;;;;;;;72.93;28.40;;;;;;;0.40;99.33;96310.53;5049888;28;20406;-72
2023/03/03 03:48:11;;;;;;;82.30;30.33;;;;;;;0.47;98.35;96308.44;5049707;28;20053;-72
2023/03/03 03:50:37;;;;;;;78.47;30.52;;;;;;;0.30;98.69;96311.22;5050585;28;20056;-72
2023/03/03 03:53:05;;;;;;;80.25;30.83;;;;;;;0.53;98.46;96310.13;5049362;28;20120;-74
2023/03/03 03:55:32;;;;;;;79.78;31.75;;;;;;;0.43;97.71;96308.16;5050375;28;20045;-74
2023/03/03 03:57:59;;;;;;;70.05;27.98;;;;;;;0.61;97.83;96311.50;5050114;28;20041;-72
2023/03/03 04:00:25;;;;;;;76.07;30.80;;;;;;;0.56;96.75;96309.59;5050212;28;20041;-71
2023/03/03 04:02:52;;;;;;;83.78;31.20;;;;;;;0.64;97.12;96308.31;5050638;28;20059;-74
2023/03/03 04:05:19;;;;;;;84.55;31.38;;;;;;;0.50;96.95;96318.66;5049539;28;20053;-74
2023/03/03 04:07:45;;;;;;;76.93;29.35;;;;;;;0.56;97.81;96323.00;5050024;28;20053;-74
2023/03/03 04:10:13;;;;;;;82.85;30.73;;;;;;;0.65;97.28;96326.81;5049349;28;20048;-74
2023/03/03 04:12:40;;;;;;;80.68;30.58;;;;;;;0.52;97.47;96319.19;5049857;28;20060;-74
2023/03/03 04:15:08;;;;;;;77.82;31.45;;;;;;;0.28;98.97;96317.91;5049929;28;20053;-73
2023/03/03 04:17:35;;;;;;;73.10;30.27;;;;;;;0.53;98.43;96318.16;5052470;28;20045;-75
2023/03/03 04:20:02;;;;;;;80.10;33.15;;;;;;;0.53;97.63;96318.16;5051561;28;20095;-75
2023/03/03 04:22:32;;;;;;;79.40;28.23;;;;;;;0.73;97.49;96321.00;5051662;28;20041;-72
2023/03/03 04:24:59;;;;;;;76.45;30.90;;;;;;;0.74;96.38;96327.16;5054401;28;20037;-72
2023/03/03 04:27:27;;;;;;;71.53;28.42;;;;;;;0.93;95.77;96311.47;5058359;28;20045;-75
2023/03/03 04:29:53;;;;;;;74.68;29.15;;;;;;;0.94;94.88;96313.09;5058669;28;20045;-73
2023/03/03 04:32:19;;;;;;;73.43;28.85;;;;;;;1.06;94.56;96311.03;5056792;28;20041;-75
2023/03/03 04:34:46;;;;;;;80.65;31.65;;;;;;;0.83;94.21;96311.41;5058496;28;20049;-74
2023/03/03 04:37:12;;;;;;;77.30;30.42;;;;;;;0.68;95.39;96304.88;5056694;28;20450;-74
2023/03/03 04:39:39;;;;;;;78.93;31.17;;;;;;;0.59;96.59;96295.69;5056389;28;20049;-74
2023/03/03 04:42:05;;;;;;;80.28;30.58;;;;;;;0.67;96.74;96302.44;5054273;28;20064;-74
2023/03/03 04:44:33;;;;;;;72.78;29.17;;;;;;;0.68;96.00;96310.25;5054249;28;20052;-74
2023/03/03 04:46:59;;;;;;;83.15;30.40;;;;;;;0.57;96.61;96313.06;5053769;28;20045;-73
2023/03/03 04:49:26;;;;;;;85.38;30.92;;;;;;;0.63;96.85;96304.03;5053317;28;20045;-74
2023/03/03 04:51:52;;;;;;;79.18;31.05;;;;;;;0.48;97.46;96304.72;5052896;28;20059;-74
2023/03/03 04:54:19;;;;;;;77.80;32.17;;;;;;;0.29;98.25;96306.94;5052164;28;20037;-74
2023/03/03 04:56:45;;;;;;;83.03;30.85;;;;;;;0.47;98.32;96303.06;5052849;28;20514;-74
2023/03/03 04:59:12;;;;;;;73.22;30.10;;;;;;;0.59;97.59;96305.59;5053569;28;20443;-74
2023/03/03 05:01:39;;;;;;;74.05;29.10;;;;;;;0.51;98.05;96312.22;5052462;28;20496;-74
2023/03/03 05:04:06;;;;;;;83.45;30.98;;;;;;;0.49;98.24;96307.13;5051843;28;20075;-74
2023/03/03 05:06:33;;;;;;;79.57;30.52;;;;;;;0.55;97.58;96307.97;5052772;28;20059;-72
2023/03/03 05:08:59;;;;;;;88.70;31.98;;;;;;;0.45;98.29;96306.00;5053109;28;20053;-74
2023/03/03 05:11:26;;;;;;;92.57;31.98;;;;;;;0.42;98.15;96308.41;5052858;28;20037;-74
2023/03/03 05:13:56;;;;;;;79.05;31.10;;;;;;;0.59;97.80;96310.97;5052292;28;20151;-74
2023/03/03 05:16:22;;;;;;;83.28;31.27;;;;;;;0.58;97.91;96307.47;5051755;28;20072;-74
2023/03/03 05:18:50;;;;;;;82.40;32.05;;;;;;;0.66;97.51;96314.22;5052663;28;20049;-74
2023/03/03 05:21:16;;;;;;;80.07;29.80;;;;;;;0.76;97.09;96317.00;5051762;28;20128;-73
2023/03/03 05:23:43;;;;;;;76.32;29.83;;;;;;;0.78;96.80;96320.22;5052049;28;20045;-74
2023/03/03 05:26:09;;;;;;;78.10;28.98;;;;;;;0.89;96.61;96321.09;5051503;28;20570;-74
2023/03/03 05:28:36;;;;;;;79.72;30.88;;;;;;;1.02;95.69;96315.31;5051897;28;20073;-74
2023/03/03 05:31:02;;;;;;;77.63;28.88;;;;;;;1.00;95.50;96314.75;5051338;28;20052;-74
2023/03/03 05:33:29;;;;;;;79.90;29.67;;;;;;;1.06;94.92;96318.28;5051718;28;20049;-74
2023/03/03 05:35:57;;;;;;;86.88;32.83;;;;;;;0.89;95.59;96321.94;5051120;28;20144;-74
2023/03/03 05:38:25;;;;;;;76.93;31.23;;;;;;;0.94;95.42;96313.94;5051310;28;20492;-74
2023/03/03 05:40:51;;;;;;;77.40;31.27;;;;;;;0.75;95.82;96326.91;5052019;28;20056;-74
2023/03/03 05:43:18;;;;;;;78.68;29.45;;;;;;;0.87;96.01;96328.59;5051683;28;20045;-74
2023/03/03 05:45:45;;;;;;;81.82;31.17;;;;;;;0.92;96.15;96325.97;5051633;28;20052;-74
2023/03/03 05:48:11;;;;;;;80.93;31.58;;;;;;;0.77;95.82;96324.75;5051435;28;20041;-74
2023/03/03 05:50:39;;;;;;;76.88;29.95;;;;;;;0.91;96.09;96325.16;5051835;28;20052;-75
2023/03/03 05:53:06;;;;;;;84.43;31.65;;;;;;;0.75;96.86;96331.47;5048646;28;20047;-74
2023/03/03 05:55:33;;;;;;;81.07;31.63;;;;;;;0.69;96.61;96333.28;5051773;28;20667;-74
2023/03/03 05:57:59;;;;;;;83.07;32.15;;;;;;;0.63;97.83;96331.63;5051745;28;20052;-74
2023/03/03 06:00:26;;;;;;;77.75;30.67;;;;;;;0.90;96.99;96338.81;5051111;28;20517;-74
2023/03/03 06:02:52;;;;;;;93.20;34.35;;;;;;;0.97;96.39;96344.75;5051346;28;20053;-74
2023/03/03 06:05:19;;;;;;;82.05;31.58;;;;;;;0.92;95.96;96342.03;5051090;28;20575;-74
2023/03/03 06:07:45;;;;;;;80.68;31.58;;;;;;;0.94;95.42;96347.94;5051999;28;20080;-74
2023/03/03 06:10:13;;;;;;;74.32;29.58;;;;;;;1.10;95.37;96354.22;5051299;28;20045;-74
2023/03/03 06:12:41;;;;;;;77.20;31.08;;;;;;;1.19;94.49;96353.50;5051623;28;20049;-74
2023/03/03 06:15:09;;;;;;;84.70;31.17;;;;;;;0.97;94.79;96356.28;5050763;28;20519;-75
2023/03/03 06:17:35;;;;;;;77.03;30.58;;;;;;;1.00;95.04;96363.84;5051075;28;20044;-74
2023/03/03 06:20:05;;;;;;;81.80;31.58;;;;;;;1.04;94.78;96366.78;5050691;28;20411;-74
2023/03/03 06:22:32;;;;;;;81.93;30.77;;;;;;;1.13;94.74;96370.63;5051049;28;20129;-74
2023/03/03 06:24:58;;;;;;;72.05;30.02;;;;;;;1.08;94.27;96365.22;5050176;28;20052;-74
2023/03/03 06:27:26;;;;;;;79.63;30.60;;;;;;;1.07;94.77;96368.16;5050616;28;20110;-74
2023/03/03 06:29:53;;;;;;;83.22;31.35;;;;;;;1.06;94.41;96362.00;5051269;28;20158;-74
2023/03/03 06:32:20;;;;;;;82.18;31.60;;;;;;;1.02;95.39;96361.69;5049936;28;20491;-77
2023/03/03 06:34:46;;;;;;;81.47;29.88;;;;;;;1.12;94.96;96363.66;5050411;28;20041;-74
2023/03/03 06:37:13;;;;;;;82.45;32.05;;;;;;;1.12;94.61;96373.56;5050600;28;20052;-73
2023/03/03 06:39:39;;;;;;;79.60;30.83;;;;;;;0.97;95.41;96371.56;5049496;28;20106;-73
2023/03/03 06:42:06;;;;;;;75.00;28.90;;;;;;;0.91;96.09;96364.56;5047351;28;20053;-74
2023/03/03 06:44:33;;;;;;;77.53;31.17;;;;;;;0.78;96.04;96363.94;5048263;28;20411;-74
2023/03/03 06:47:00;;;;;;;85.78;32.25;;;;;;;0.77;96.56;96366.84;5049649;28;20068;-74
2023/03/03 06:49:26;;;;;;;84.85;31.63;;;;;;;0.88;96.63;96373.09;5049736;28;20664;-74
2023/03/03 06:51:53;;;;;;;75.45;29.63;;;;;;;0.94;96.42;96372.06;5050789;28;20045;-73
2023/03/03 06:54:22;;;;;;;82.80;31.13;;;;;;;1.13;96.00;96386.72;5048174;28;20045;-74
2023/03/03 06:56:52;;;;;;;71.38;30.50;;;;;;;1.37;94.91;96386.34;5049245;28;20075;-73
2023/03/03 06:59:21;;;;;;;72.03;28.40;;;;;;;1.54;94.67;96395.03;5049027;28;20679;-73
2023/03/03 07:01:50;;;;;;;69.20;28.05;;;;;;;1.70;94.06;96401.31;5049871;28;20555;-73
2023/03/03 07:04:27;;;;;;;75.93;29.52;;;;;;;1.66;93.29;96406.38;5049331;28;20519;-73
2023/03/03 07:06:54;;;;;;;73.85;29.02;;;;;;;1.79;92.72;96405.91;5049383;28;20041;-72
2023/03/03 07:09:23;;;;;;;75.57;31.05;;;;;;;1.61;91.72;96409.03;5049407;28;20044;-73
2023/03/03 07:11:50;;;;;;;74.55;28.60;;;;;;;1.85;91.50;96414.00;5049904;28;20107;-73
2023/03/03 07:14:19;;;;;;;72.45;31.27;;;;;;;1.72;91.32;96410.72;5047987;28;20147;-74
2023/03/03 07:16:46;;;;;;;66.43;28.10;;;;;;;1.73;91.68;96419.59;5049235;28;20587;-73
2023/03/03 07:19:19;;;;;;;67.90;28.20;;;;;;;1.81;91.44;96409.16;5049465;28;20052;-73
2023/03/03 07:21:45;;;;;;;;;;;;;;;1.93;90.70;96421.53;5050436;28;20052;-73
2023/03/03 07:24:22;;;;;;;83.40;31.05;;;;;;;1.89;90.29;96415.09;5049082;28;19921;-73
2023/03/03 07:26:49;;;;;;;73.72;29.40;;;;;;;1.90;89.63;96414.03;5049616;28;20068;-73
2023/03/03 07:29:21;;;;;;;71.05;29.33;;;;;;;1.98;89.38;96424.25;5048967;28;20609;-74
2023/03/03 07:31:49;;;;;;;72.78;30.40;;;;;;;1.71;90.17;96419.81;5049277;28;20055;-73
2023/03/03 07:34:21;;;;;;;75.63;29.52;;;;;;;1.65;91.30;96415.50;5048904;28;20381;-73
2023/03/03 07:36:49;;;;;;;76.07;31.20;;;;;;;1.57;90.78;96413.31;5045385;28;20535;-73
2023/03/03 07:39:30;;;;;;;79.68;31.20;;;;;;;1.60;91.50;96411.97;5049400;28;20041;-74
2023/03/03 07:42:09;;;;;;;73.30;30.00;;;;;;;1.71;91.96;96417.13;5049818;28;20049;-74
2023/03/03 07:44:37;;;;;;;76.10;30.15;;;;;;;1.81;92.06;96419.88;5049505;28;20052;-74
2023/03/03 07:47:18;;;;;;;76.47;31.77;;;;;;;1.55;91.96;96412.75;5048883;28;20041;-73
2023/03/03 07:49:47;;;;;;;76.38;30.85;;;;;;;1.46;92.36;96417.81;5049813;28;20455;-74
2023/03/03 07:52:24;;;;;;;69.95;28.77;;;;;;;1.64;92.09;96424.63;5049117;28;20041;-74
2023/03/03 07:54:51;;;;;;;72.93;31.85;;;;;;;1.76;91.52;96427.91;5049316;28;20065;-74
2023/03/03 07:57:22;;;;;;;68.57;29.88;;;;;;;1.86;90.92;96431.72;5049144;28;20049;-74
2023/03/03 07:59:50;;;;;;;75.88;31.42;;;;;;;1.90;89.95;96432.81;5051700;28;20049;-74
2023/03/03 08:02:34;;;;;;;76.25;29.85;;;;;;;2.13;89.66;96435.06;5052676;28;20068;-74
2023/03/03 08:05:25;;;;;;;72.15;30.45;;;;;;;1.99;88.95;96437.44;5053605;28;20041;-74
2023/03/03 08:07:51;;;;;;;69.57;29.27;;;;;;;1.93;89.93;96437.66;5053410;28;20040;-75
2023/03/03 08:10:34;;;;;;;74.63;30.23;;;;;;;2.14;90.30;96428.66;5053089;28;20045;-74
2023/03/03 08:13:09;;;;;;;80.32;31.15;;;;;;;2.26;89.22;96437.28;5053409;28;20056;-74
2023/03/03 08:15:37;;;;;;;70.15;29.30;;;;;;;2.50;88.45;96442.19;5053411;28;20056;-74
2023/03/03 08:18:28;;;;;;;75.20;29.60;;;;;;;2.33;88.49;96437.03;5053143;28;20128;-74
2023/03/03 08:20:58;;;;;;;71.90;30.10;;;;;;;2.52;89.62;96440.06;5053489;28;20045;-74
2023/03/03 08:23:25;;;;;;;73.00;29.90;;;;;;;2.57;87.53;96443.59;5052799;28;20166;-74
2023/03/03 08:25:52;;;;;;;75.97;30.83;;;;;;;2.51;87.20;96443.84;5053218;28;20496;-75
2023/03/03 08:28:20;;;;;;;71.70;30.90;;;;;;;2.26;88.57;96439.97;5052518;28;20405;-75
2023/03/03 08:30:47;;;;;;;72.18;29.55;;;;;;;2.47;87.00;96440.88;5053007;28;20045;-74
2023/03/03 08:33:14;;;;;;;68.80;29.92;;;;;;;2.60;86.64;96444.91;5052459;28;20052;-74
2023/03/03 08:35:41;;;;;;;70.07;30.70;;;;;;;2.53;87.28;96442.50;5053037;28;20435;-73
2023/03/03 08:38:09;;;;;;;68.68;30.08;;;;;;;2.37;88.67;96437.34;5052581;28;20044;-74
2023/03/03 08:40:37;;;;;;;74.45;30.60;;;;;;;2.57;88.73;96448.16;5044620;28;20059;-74
2023/03/03 08:43:04;;;;;;;68.03;29.17;;;;;;;2.73;87.48;96446.31;5052610;28;20045;-74
2023/03/03 08:45:31;;;;;;;76.95;30.92;;;;;;;2.81;85.53;96445.78;5052636;28;20045;-72
2023/03/03 08:47:58;;;;;;;73.25;31.63;;;;;;;2.76;85.34;96451.94;5052812;28;20045;-74
2023/03/03 08:50:25;;;;;;;71.60;30.77;;;;;;;2.65;87.34;96450.31;5052199;28;20055;-74
2023/03/03 08:52:52;;;;;;;75.28;32.30;;;;;;;2.78;86.25;96449.81;5052916;28;20072;-73
2023/03/03 08:55:19;;;;;;;77.43;30.30;;;;;;;2.74;85.53;96448.72;5051547;28;20040;-74
2023/03/03 08:57:46;;;;;;;75.22;30.88;;;;;;;2.63;86.89;96457.84;5052705;28;20455;-74
2023/03/03 09:00:15;;;;;;;78.68;32.67;;;;;;;2.64;89.15;96469.41;5052104;28;20057;-75
2023/03/03 09:02:42;;;;;;;74.60;30.65;;;;;;;2.83;87.49;96460.59;5052189;28;20515;-73
2023/03/03 09:05:09;;;;;;;71.03;29.90;;;;;;;3.15;86.15;96464.94;5051835;28;20052;-74
2023/03/03 09:07:36;;;;;;;73.60;31.23;;;;;;;3.29;85.61;96459.81;5052123;28;20132;-71
2023/03/03 09:10:04;;;;;;;80.60;30.98;;;;;;;3.28;85.34;96458.22;5051031;28;20041;-74
2023/03/03 09:12:35;;;;;;;74.00;30.42;;;;;;;3.57;84.36;96461.16;5052080;28;20072;-74
2023/03/03 09:15:14;;;;;;;75.70;31.88;;;;;;;3.73;83.27;96464.66;5051918;28;20045;-75
2023/03/03 09:17:42;;;;;;;74.95;30.35;;;;;;;3.93;82.06;96470.81;5052405;28;20091;-74
2023/03/03 09:20:32;;;;;;;67.93;29.65;;;;;;;4.12;80.84;96470.22;5051117;28;20094;-71
2023/03/03 09:23:08;;;;;;;75.55;30.98;;;;;;;3.91;80.73;96477.53;5045972;28;20048;-74
2023/03/03 09:25:37;;;;;;;77.22;31.05;;;;;;;4.15;81.12;96469.69;5052277;28;20048;-72
2023/03/03 09:28:22;;;;;;;75.90;29.88;;;;;;;4.13;79.77;96479.94;5052050;28;20045;-72
2023/03/03 09:30:51;;;;;;;64.57;28.92;;;;;;;4.02;77.94;96484.56;5048788;28;20645;-72
2023/03/03 09:33:25;;;;;;;69.88;29.50;;;;;;;3.99;80.57;96479.69;5052377;28;20052;-73
2023/03/03 09:35:53;;;;;;;73.38;29.98;;;;;;;4.09;79.45;96489.66;5052313;28;20048;-72
2023/03/03 09:38:30;;;;;;;71.75;30.60;;;;;;;3.95;80.87;96488.59;5051372;28;20049;-71
2023/03/03 09:41:36;;;;;;;75.28;30.70;;;;;;;4.23;79.56;96489.88;5052174;28;20497;-72
2023/03/03 09:44:25;;;;;;;73.88;31.30;;;;;;;4.19;80.66;96484.25;5038952;28;20114;-78
2023/03/03 09:47:08;;;;;;;64.90;31.50;;;;;;;4.23;78.54;96489.88;5045323;28;20041;-72
2023/03/03 09:49:39;;;;;;;71.90;30.00;;;;;;;4.59;78.22;96487.84;5051795;28;20053;-72
2023/03/03 09:52:31;;;;;;;67.88;30.48;;;;;;;4.56;79.24;96497.31;5051264;28;20063;-73
2023/03/03 09:55:10;;;;;;;68.03;30.05;;;;;;;4.41;78.52;96491.97;5039116;28;20103;-72
2023/03/03 09:57:51;;;;;;;65.00;29.08;;;;;;;4.37;77.89;96502.50;5045592;28;20045;-72
2023/03/03 10:00:37;;;;;;;70.95;31.00;;;;;;;4.03;78.23;96496.13;5051205;28;20049;-73
2023/03/03 10:03:31;;;;;;;67.00;30.85;;;;;;;4.40;78.38;96496.56;5051528;28;20495;-73
2023/03/03 10:06:04;;;;;;;62.55;29.98;;;;;;;4.48;77.22;96497.88;5051767;28;20045;-72
2023/03/03 10:09:16;;;;;;;71.78;32.58;;;;;;;4.85;77.00;96502.84;5057591;28;20041;-75
2023/03/03 10:11:54;;;;;;;68.47;29.35;;;;;;;4.27;76.70;96497.13;5057422;28;20041;-74
2023/03/03 10:14:37;;;;;;;67.05;29.88;;;;;;;4.25;76.86;96493.13;5057097;28;20049;-74
2023/03/03 10:17:21;;;;;;;70.68;31.38;;;;;;;4.60;77.55;96500.28;5057427;28;20049;-75
2023/03/03 10:19:58;;;;;;;67.93;30.10;;;;;;;4.86;76.52;96499.09;5053689;28;20424;-75
2023/03/03 10:22:33;;;;;;;65.35;30.77;;;;;;;4.67;76.10;96506.19;5056545;28;20499;-74
2023/03/03 10:25:16;;;;;;;65.65;30.02;;;;;;;4.72;75.81;96503.47;5053457;28;20519;-75
2023/03/03 10:27:54;;;;;;;78.27;30.27;;;;;;;5.01;75.68;96500.06;5030565;28;20040;-75
2023/03/03 10:30:28;;;;;;;69.07;30.60;;;;;;;5.23;74.24;96508.59;5048909;28;20294;-75
2023/03/03 10:33:01;;;;;;;64.40;30.13;;;;;;;5.16;74.42;96510.78;5052701;28;20562;-75
2023/03/03 10:35:43;;;;;;;69.75;31.67;;;;;;;4.86;76.10;96504.47;5051829;28;20652;-74
2023/03/03 10:38:26;;;;;;;74.07;30.80;;;;;;;4.85;77.32;96510.94;5051262;28;20048;-74
2023/03/03 10:40:58;;;;;;;70.53;31.55;;;;;;;5.04;78.92;96518.41;5043997;28;20041;-74
2023/03/03 10:43:41;;;;;;;70.20;30.80;;;;;;;5.22;76.96;96518.59;5051188;28;20044;-76
2023/03/03 10:46:22;;;;;;;70.75;31.10;;;;;;;5.34;78.23;96520.94;5051067;28;20045;-75
2023/03/03 10:49:03;;;;;;;68.78;32.45;;;;;;;5.58;74.29;96526.41;5051294;28;20041;-75
2023/03/03 10:51:36;;;;;;;69.93;31.42;;;;;;;5.60;74.29;96529.66;5051088;28;20048;-75
2023/03/03 10:54:17;;;;;;;63.28;31.00;;;;;;;5.75;73.82;96520.63;5050381;28;20045;-75
2023/03/03 10:56:51;;;;;;;67.07;31.25;;;;;;;5.79;71.37;96521.66;5042583;28;20428;-75
2023/03/03 10:59:35;;;;;;;60.70;28.92;;;;;;;6.07;71.45;96528.22;5050484;28;20075;-73
2023/03/03 11:02:07;;;;;;;62.53;30.10;;;;;;;5.84;71.05;96523.53;5050579;28;20037;-72
2023/03/03 11:05:02;;;;;;;58.67;29.88;;;;;;;6.14;70.88;96519.78;5050982;28;20052;-73
2023/03/03 11:07:35;;;;;;;59.08;29.80;;;;;;;6.34;71.01;96516.88;5050953;28;20037;-75
2023/03/03 11:10:18;;;;;;;65.07;30.42;;;;;;;6.37;71.03;96510.91;5051553;28;20047;-73
2023/03/03 11:12:56;;;;;;;63.63;30.48;;;;;;;6.34;69.81;96505.25;5042812;28;20041;-73
2023/03/03 11:15:35;;;;;;;63.35;29.83;;;;;;;6.32;69.32;96496.59;5050448;28;20449;-74
2023/03/03 11:18:21;;;;;;;61.35;30.15;;;;;;;6.22;71.95;96505.66;5044479;28;20037;-73
2023/03/03 11:20:56;;;;;;;63.47;30.05;;;;;;;6.65;72.03;96500.28;5050699;28;20041;-72
2023/03/03 11:23:41;;;;;;;63.70;30.35;;;;;;;6.94;67.43;96495.59;5049476;28;20543;-73
2023/03/03 11:26:18;;;;;;;65.53;30.27;;;;;;;6.83;68.03;96491.38;5044445;28;20424;-73
2023/03/03 11:29:02;;;;;;;64.43;31.60;;;;;;;6.41;69.34;96495.69;5046346;28;20041;-78
2023/03/03 11:31:36;;;;;;;61.85;31.02;;;;;;;6.85;70.09;96500.03;5050070;28;20496;-73
2023/03/03 11:34:14;;;;;;;57.08;29.38;;;;;;;7.04;66.92;96508.19;5048808;28;20439;-73
2023/03/03 11:36:48;;;;;;;65.57;31.15;;;;;;;7.28;68.33;96508.13;5047977;28;20060;-73
2023/03/03 11:39:18;;;;;;;62.45;30.15;;;;;;;7.35;67.41;96497.72;5049285;28;20033;-74